CSCL Oceania — VRBI2 — position and weather

sailwx.info

Track history (hours):
 
Tides and Currents Weather Stations Pressure Air Temp Water Temp Dewpoint Dewpoint Depression Visibility Wind Speed Wind Dir Waves Ship Positions

CSCL Oceania

Last reported at 2016-May-13 17:05 UTC. Time now 2016-May-24 19:42 UTC.
Position N 18°04' W 059°46'.
Warning: this ship's position is 11 days out of date.

Length 334 m; beam 42.8 m; draft 14.5 m.

Type: Cargo ship. MMSI: 477020300.

Date/timePositionNaut miles runAvg speedWind from/ knotsBaromVisibWave heightAir tempDewpointWater temp
2016-May-13 17:05N 18°04' W 059°46'1114.9
2016-May-13 16:21N 18°11' W 059°55'  
2016-May-09 19:31N 31°27' W 079°37'4914.1
2016-May-09 16:03N 31°51' W 080°28'714.4
2016-May-09 15:33N 31°55' W 080°35'1414.0
2016-May-09 14:34N 32°02' W 080°49'10 9.7
2016-May-09 13:33N 32°05' W 080°59'6 6.4
2016-May-09 12:33N 32°06' W 081°07'2 1.7
2016-May-09 11:32N 32°08' W 081°08'0 0.0
2016-May-09 10:32N 32°08' W 081°08'0 0.0
2016-May-09 09:32N 32°08' W 081°08'0 0.0
2016-May-09 08:32N 32°08' W 081°08'0 0.0
2016-May-09 07:32N 32°08' W 081°08'0 0.0
2016-May-09 06:32N 32°08' W 081°08'0 0.0
2016-May-09 05:32N 32°08' W 081°08'0 0.0
2016-May-09 04:33N 32°08' W 081°08'0 0.0
2016-May-09 03:33N 32°08' W 081°08'0 0.0
2016-May-09 02:33N 32°08' W 081°08'0 0.0
2016-May-09 01:33N 32°08' W 081°08'0 0.0
2016-May-09 00:31N 32°08' W 081°08'0 0.0
2016-May-08 23:31N 32°08' W 081°08'0 0.0
2016-May-08 22:31N 32°08' W 081°08'0 0.0
2016-May-08 21:31N 32°08' W 081°08'0 0.0
2016-May-08 20:31N 32°08' W 081°08'0 0.0
2016-May-08 19:31N 32°08' W 081°08'0 0.0
2016-May-08 18:31N 32°08' W 081°08'0 0.0
2016-May-08 17:31N 32°08' W 081°08'0 0.0
2016-May-08 16:32N 32°08' W 081°08'0 0.0
2016-May-08 15:33N 32°08' W 081°08'0 0.0
2016-May-08 14:33N 32°08' W 081°08'0 0.0
2016-May-08 13:32N 32°08' W 081°08'0 0.0
2016-May-08 12:33N 32°08' W 081°08'0 0.0
2016-May-08 11:33N 32°08' W 081°08'0 0.0
2016-May-08 10:33N 32°08' W 081°08'0 0.0
2016-May-08 09:33N 32°08' W 081°08'0 0.0
2016-May-08 08:33N 32°08' W 081°08'0 0.0
2016-May-08 07:33N 32°08' W 081°08'0 0.0
2016-May-08 06:33N 32°08' W 081°08'0 0.0
2016-May-08 05:33N 32°08' W 081°08'0 0.0
2016-May-08 04:33N 32°08' W 081°08'0 0.0
2016-May-08 03:33N 32°08' W 081°08'0 0.4
2016-May-08 02:33N 32°08' W 081°08'5 4.9
2016-May-08 01:33N 32°05' W 081°04'8 7.5
2016-May-08 00:33N 32°02' W 080°56'1313.2
2016-May-07 23:33N 31°57' W 080°41'6 5.9
2016-May-07 22:32N 31°58' W 080°34'1010.4
2016-May-07 21:33N 31°59' W 080°22'1914.2
2016-May-07 20:13N 32°02' W 080°00'35512.3
2016-May-06 15:21N 36°51' W 075°50'1316.1
2016-May-06 14:33N 36°58' W 076°03'1312.7
2016-May-06 13:30N 36°57' W 076°20'4 3.9
2016-May-06 12:25N 36°53' W 076°21'0 0.0
2016-May-06 11:07N 36°53' W 076°21'0 0.0
2016-May-06 10:30N 36°53' W 076°21'0 0.0
2016-May-06 09:21N 36°53' W 076°21'0 0.0
2016-May-06 08:30N 36°53' W 076°21'0 0.0
2016-May-06 07:30N 36°53' W 076°21'0 0.0
2016-May-06 06:33N 36°53' W 076°21'0 0.0
2016-May-06 05:30N 36°53' W 076°21'0 0.0
2016-May-06 04:33N 36°53' W 076°21'0 0.0
2016-May-06 03:25N 36°53' W 076°21'0 0.0
2016-May-06 02:31N 36°53' W 076°21'0 0.0
2016-May-06 01:30N 36°53' W 076°21'0 0.0
2016-May-06 00:34N 36°53' W 076°21'0 0.0
2016-May-05 23:31N 36°53' W 076°21'0 0.0
2016-May-05 22:25N 36°53' W 076°21'0 0.0
2016-May-05 21:27N 36°53' W 076°21'0 0.0
2016-May-05 20:33N 36°53' W 076°21'0 0.0
2016-May-05 19:33N 36°53' W 076°21'0 0.0
2016-May-05 18:30N 36°53' W 076°21'0 0.0
2016-May-05 17:33N 36°53' W 076°21'0 0.0
2016-May-05 16:33N 36°53' W 076°21'5 4.7
2016-May-05 15:33N 36°57' W 076°20'1212.0
2016-May-05 14:33N 36°58' W 076°05'1211.7
2016-May-05 13:33N 36°53' W 075°52'18214.8
2016-May-05 01:15N 39°28' W 073°52'1217.1
2016-May-05 00:33N 39°40' W 073°52'1717.1
2016-May-04 23:33N 39°57' W 073°51'3014.7
2016-May-04 21:32N 40°27' W 073°50'1414.1
2016-May-04 20:33N 40°37' W 074°03'5 5.5
2016-May-04 19:33N 40°40' W 074°09'1 1.0
2016-May-04 18:31N 40°41' W 074°09'0 0.0
2016-May-04 17:31N 40°41' W 074°09'0 0.0
2016-May-04 16:31N 40°41' W 074°09'0 0.0
2016-May-04 15:31N 40°41' W 074°09'0 0.0
2016-May-04 14:28N 40°41' W 074°09'0 0.0
2016-May-04 13:28N 40°41' W 074°09'0 0.0
2016-May-04 12:31N 40°41' W 074°09'0 0.0
2016-May-04 11:32N 40°41' W 074°09'0 0.0
2016-May-04 10:32N 40°41' W 074°09'0 0.0
2016-May-04 09:32N 40°41' W 074°09'0 0.0
2016-May-04 08:32N 40°41' W 074°09'0 0.0
2016-May-04 07:32N 40°41' W 074°09'0 0.0
2016-May-04 06:32N 40°41' W 074°09'0 0.0
2016-May-04 05:32N 40°41' W 074°09'0 0.0
2016-May-04 04:32N 40°41' W 074°09'0 0.0
2016-May-04 03:32N 40°41' W 074°09'0 0.0
2016-May-04 02:32N 40°41' W 074°09'0 0.0
2016-May-04 01:32N 40°41' W 074°09'0 0.0
2016-May-04 00:29N 40°41' W 074°09'0 0.0
2016-May-03 23:32N 40°41' W 074°09'0 0.0
2016-May-03 22:32N 40°41' W 074°09'0 0.0
2016-May-03 21:32N 40°41' W 074°09'0 0.0
2016-May-03 20:32N 40°41' W 074°09'0 0.0
2016-May-03 19:29N 40°41' W 074°09'0 0.0
2016-May-03 18:33N 40°41' W 074°09'0 0.0
2016-May-03 17:33N 40°41' W 074°09'  
Track history (hours):
 
Tides and Currents Weather Stations Pressure Air Temp Water Temp Dewpoint Dewpoint Depression Visibility Wind Speed Wind Dir Waves Ship Positions

CSCL Oceania

Last reported at 2016-May-13 17:05 UTC. Time now 2016-May-24 19:42 UTC.
Position N 18°04' W 059°46'.
Warning: this ship's position is 11 days out of date.

Length 334 m; beam 42.8 m; draft 14.5 m.

Type: Cargo ship. MMSI: 477020300.

Date/timePositionNaut miles runAvg speedWind from/ knotsBaromVisibWave heightAir tempDewpointWater temp
2016-May-13 17:05N 18°04' W 059°46'1114.9
2016-May-13 16:21N 18°11' W 059°55'  
2016-May-09 19:31N 31°27' W 079°37'4914.1
2016-May-09 16:03N 31°51' W 080°28'714.4
2016-May-09 15:33N 31°55' W 080°35'1414.0
2016-May-09 14:34N 32°02' W 080°49'10 9.7
2016-May-09 13:33N 32°05' W 080°59'6 6.4
2016-May-09 12:33N 32°06' W 081°07'2 1.7
2016-May-09 11:32N 32°08' W 081°08'0 0.0
2016-May-09 10:32N 32°08' W 081°08'0 0.0
2016-May-09 09:32N 32°08' W 081°08'0 0.0
2016-May-09 08:32N 32°08' W 081°08'0 0.0
2016-May-09 07:32N 32°08' W 081°08'0 0.0
2016-May-09 06:32N 32°08' W 081°08'0 0.0
2016-May-09 05:32N 32°08' W 081°08'0 0.0
2016-May-09 04:33N 32°08' W 081°08'0 0.0
2016-May-09 03:33N 32°08' W 081°08'0 0.0
2016-May-09 02:33N 32°08' W 081°08'0 0.0
2016-May-09 01:33N 32°08' W 081°08'0 0.0
2016-May-09 00:31N 32°08' W 081°08'0 0.0
2016-May-08 23:31N 32°08' W 081°08'0 0.0
2016-May-08 22:31N 32°08' W 081°08'0 0.0
2016-May-08 21:31N 32°08' W 081°08'0 0.0
2016-May-08 20:31N 32°08' W 081°08'0 0.0
2016-May-08 19:31N 32°08' W 081°08'0 0.0
2016-May-08 18:31N 32°08' W 081°08'0 0.0
2016-May-08 17:31N 32°08' W 081°08'0 0.0
2016-May-08 16:32N 32°08' W 081°08'0 0.0
2016-May-08 15:33N 32°08' W 081°08'0 0.0
2016-May-08 14:33N 32°08' W 081°08'0 0.0
2016-May-08 13:32N 32°08' W 081°08'0 0.0
2016-May-08 12:33N 32°08' W 081°08'0 0.0
2016-May-08 11:33N 32°08' W 081°08'0 0.0
2016-May-08 10:33N 32°08' W 081°08'0 0.0
2016-May-08 09:33N 32°08' W 081°08'0 0.0
2016-May-08 08:33N 32°08' W 081°08'0 0.0
2016-May-08 07:33N 32°08' W 081°08'0 0.0
2016-May-08 06:33N 32°08' W 081°08'0 0.0
2016-May-08 05:33N 32°08' W 081°08'0 0.0
2016-May-08 04:33N 32°08' W 081°08'0 0.0
2016-May-08 03:33N 32°08' W 081°08'0 0.4
2016-May-08 02:33N 32°08' W 081°08'5 4.9
2016-May-08 01:33N 32°05' W 081°04'8 7.5
2016-May-08 00:33N 32°02' W 080°56'1313.2
2016-May-07 23:33N 31°57' W 080°41'6 5.9
2016-May-07 22:32N 31°58' W 080°34'1010.4
2016-May-07 21:33N 31°59' W 080°22'1914.2
2016-May-07 20:13N 32°02' W 080°00'35512.3
2016-May-06 15:21N 36°51' W 075°50'1316.1
2016-May-06 14:33N 36°58' W 076°03'1312.7
2016-May-06 13:30N 36°57' W 076°20'4 3.9
2016-May-06 12:25N 36°53' W 076°21'0 0.0
2016-May-06 11:07N 36°53' W 076°21'0 0.0
2016-May-06 10:30N 36°53' W 076°21'0 0.0
2016-May-06 09:21N 36°53' W 076°21'0 0.0
2016-May-06 08:30N 36°53' W 076°21'0 0.0
2016-May-06 07:30N 36°53' W 076°21'0 0.0
2016-May-06 06:33N 36°53' W 076°21'0 0.0
2016-May-06 05:30N 36°53' W 076°21'0 0.0
2016-May-06 04:33N 36°53' W 076°21'0 0.0
2016-May-06 03:25N 36°53' W 076°21'0 0.0
2016-May-06 02:31N 36°53' W 076°21'0 0.0
2016-May-06 01:30N 36°53' W 076°21'0 0.0
2016-May-06 00:34N 36°53' W 076°21'0 0.0
2016-May-05 23:31N 36°53' W 076°21'0 0.0
2016-May-05 22:25N 36°53' W 076°21'0 0.0
2016-May-05 21:27N 36°53' W 076°21'0 0.0
2016-May-05 20:33N 36°53' W 076°21'0 0.0
2016-May-05 19:33N 36°53' W 076°21'0 0.0
2016-May-05 18:30N 36°53' W 076°21'0 0.0
2016-May-05 17:33N 36°53' W 076°21'0 0.0
2016-May-05 16:33N 36°53' W 076°21'5 4.7
2016-May-05 15:33N 36°57' W 076°20'1212.0
2016-May-05 14:33N 36°58' W 076°05'1211.7
2016-May-05 13:33N 36°53' W 075°52'18214.8
2016-May-05 01:15N 39°28' W 073°52'1217.1
2016-May-05 00:33N 39°40' W 073°52'1717.1
2016-May-04 23:33N 39°57' W 073°51'3014.7
2016-May-04 21:32N 40°27' W 073°50'1414.1
2016-May-04 20:33N 40°37' W 074°03'5 5.5
2016-May-04 19:33N 40°40' W 074°09'1 1.0
2016-May-04 18:31N 40°41' W 074°09'0 0.0
2016-May-04 17:31N 40°41' W 074°09'0 0.0
2016-May-04 16:31N 40°41' W 074°09'0 0.0
2016-May-04 15:31N 40°41' W 074°09'0 0.0
2016-May-04 14:28N 40°41' W 074°09'0 0.0
2016-May-04 13:28N 40°41' W 074°09'0 0.0
2016-May-04 12:31N 40°41' W 074°09'0 0.0
2016-May-04 11:32N 40°41' W 074°09'0 0.0
2016-May-04 10:32N 40°41' W 074°09'0 0.0
2016-May-04 09:32N 40°41' W 074°09'0 0.0
2016-May-04 08:32N 40°41' W 074°09'0 0.0
2016-May-04 07:32N 40°41' W 074°09'0 0.0
2016-May-04 06:32N 40°41' W 074°09'0 0.0
2016-May-04 05:32N 40°41' W 074°09'0 0.0
2016-May-04 04:32N 40°41' W 074°09'0 0.0
2016-May-04 03:32N 40°41' W 074°09'0 0.0
2016-May-04 02:32N 40°41' W 074°09'0 0.0
2016-May-04 01:32N 40°41' W 074°09'0 0.0
2016-May-04 00:29N 40°41' W 074°09'0 0.0
2016-May-03 23:32N 40°41' W 074°09'0 0.0
2016-May-03 22:32N 40°41' W 074°09'0 0.0
2016-May-03 21:32N 40°41' W 074°09'0 0.0
2016-May-03 20:32N 40°41' W 074°09'0 0.0
2016-May-03 19:29N 40°41' W 074°09'0 0.0
2016-May-03 18:33N 40°41' W 074°09'0 0.0
2016-May-03 17:33N 40°41' W 074°09'  

Dump ship's entire track history